This is the latest recevied weather packets stored in our database for station/object VK2XSE. If no packets are shown the sender has not sent any weather packets the latest 10 day(s).
| Time | Temp. | Humidity | Pressure | Rain* | Wind** | Luminosity | Snow |
|---|---|---|---|---|---|---|---|
| 1777781717 | 21.67° C | 70% | 1014.1 hPa | 0 mm | - | 57 W/m² | - |
| 1777781117 | 22.22° C | 70% | 1014.1 hPa | 0 mm | - | 79 W/m² | - |
| 1777780517 | 22.22° C | 67% | 1014.2 hPa | 0 mm | - | 84 W/m² | - |
| 1777779917 | 22.78° C | 65% | 1014.4 hPa | 0 mm | - | 72 W/m² | - |
| 1777779317 | 22.78° C | 64% | 1014.5 hPa | 0 mm | - | 84 W/m² | - |
| 1777778717 | 23.33° C | 64% | 1014.6 hPa | 0 mm | - | 129 W/m² | - |
| 1777778117 | 23.33° C | 64% | 1014.7 hPa | 0 mm | - | 205 W/m² | - |
| 1777777517 | 23.33° C | 65% | 1014.7 hPa | 0 mm | - | 238 W/m² | - |
| 1777776917 | 23.33° C | 62% | 1014.8 hPa | 0 mm | - | 146 W/m² | - |
| 1777776317 | 23.33° C | 63% | 1014.9 hPa | 0 mm | - | 92 W/m² | - |
| 1777775717 | 23.33° C | 63% | 1014.9 hPa | 0 mm | - | 132 W/m² | - |
| 1777775117 | 23.89° C | 60% | 1015.1 hPa | 0 mm | - | 99 W/m² | - |
| 1777774517 | 24.44° C | 57% | 1015 hPa | 0 mm | - | 148 W/m² | - |
| 1777773917 | 24.44° C | 58% | 1015.1 hPa | 0 mm | - | 207 W/m² | - |
| 1777773317 | 24.44° C | 58% | 1015.2 hPa | 0 mm | - | 224 W/m² | - |
| 1777772717 | 24.44° C | 58% | 1015.4 hPa | 0 mm | - | 263 W/m² | - |
| 1777772117 | 23.89° C | 59% | 1015.4 hPa | 0 mm | - | 283 W/m² | - |
| 1777771517 | 23.89° C | 61% | 1015.5 hPa | 0 mm | - | 237 W/m² | - |
| 1777770917 | 23.33° C | 62% | 1015.3 hPa | 0 mm | - | 251 W/m² | - |
| 1777770317 | 22.78° C | 63% | 1015.4 hPa | 0 mm | - | 184 W/m² | - |
| 1777769717 | 22.78° C | 64% | 1015.6 hPa | 0 mm | - | 152 W/m² | - |
| 1777769117 | 22.78° C | 64% | 1015.6 hPa | 0 mm | - | 236 W/m² | - |
| 1777768517 | 22.22° C | 66% | 1015.6 hPa | 0 mm | - | 212 W/m² | - |
| 1777767917 | 21.11° C | 68% | 1015.7 hPa | 0 mm | - | 177 W/m² | - |
| 1777767317 | 21.11° C | 68% | 1015.9 hPa | 0 mm | - | 76 W/m² | - |
* Rain latest hour (hover to see other rain measurements)
** Current wind speed in m/s (hover to see current wind gust speed)